sensor_id;sensor_type;location;lat;lon;timestamp;P1;durP1;ratioP1;P2;durP2;ratioP2
50337;SDS011;46221;51.178;5.900;2022-08-21T00:00:12;6.45;;;3.00;;
50337;SDS011;46221;51.178;5.900;2022-08-21T00:02:53;4.88;;;2.70;;
50337;SDS011;46221;51.178;5.900;2022-08-21T00:05:20;5.43;;;2.42;;
50337;SDS011;46221;51.178;5.900;2022-08-21T00:07:47;5.63;;;2.70;;
50337;SDS011;46221;51.178;5.900;2022-08-21T00:10:14;4.78;;;2.38;;
50337;SDS011;46221;51.178;5.900;2022-08-21T00:12:40;5.90;;;3.10;;
50337;SDS011;46221;51.178;5.900;2022-08-21T00:15:07;7.13;;;2.70;;
50337;SDS011;46221;51.178;5.900;2022-08-21T00:17:36;5.18;;;2.60;;
50337;SDS011;46221;51.178;5.900;2022-08-21T00:20:04;5.72;;;2.80;;
50337;SDS011;46221;51.178;5.900;2022-08-21T00:22:30;5.07;;;2.78;;
50337;SDS011;46221;51.178;5.900;2022-08-21T00:24:57;3.88;;;2.55;;
50337;SDS011;46221;51.178;5.900;2022-08-21T00:27:24;6.40;;;3.10;;
50337;SDS011;46221;51.178;5.900;2022-08-21T00:29:50;4.82;;;2.60;;
50337;SDS011;46221;51.178;5.900;2022-08-21T00:32:21;5.55;;;2.75;;
50337;SDS011;46221;51.178;5.900;2022-08-21T00:34:48;3.83;;;2.72;;
50337;SDS011;46221;51.178;5.900;2022-08-21T00:37:15;4.35;;;2.30;;
50337;SDS011;46221;51.178;5.900;2022-08-21T00:39:41;5.00;;;2.50;;
50337;SDS011;46221;51.178;5.900;2022-08-21T00:42:07;4.35;;;2.60;;
50337;SDS011;46221;51.178;5.900;2022-08-21T00:44:34;4.35;;;2.72;;
50337;SDS011;46221;51.178;5.900;2022-08-21T00:47:00;3.85;;;2.53;;
50337;SDS011;46221;51.178;5.900;2022-08-21T00:49:27;4.72;;;2.58;;
50337;SDS011;46221;51.178;5.900;2022-08-21T00:51:54;4.25;;;2.65;;
50337;SDS011;46221;51.178;5.900;2022-08-21T00:54:22;4.93;;;3.60;;
50337;SDS011;46221;51.178;5.900;2022-08-21T00:56:53;5.40;;;2.55;;
50337;SDS011;46221;51.178;5.900;2022-08-21T00:59:20;7.07;;;2.85;;
50337;SDS011;46221;51.178;5.900;2022-08-21T01:01:47;3.63;;;2.40;;
50337;SDS011;46221;51.178;5.900;2022-08-21T01:04:14;4.25;;;2.50;;
50337;SDS011;46221;51.178;5.900;2022-08-21T01:06:42;5.03;;;2.60;;
50337;SDS011;46221;51.178;5.900;2022-08-21T01:09:09;4.70;;;2.60;;
50337;SDS011;46221;51.178;5.900;2022-08-21T01:11:35;4.63;;;2.78;;
50337;SDS011;46221;51.178;5.900;2022-08-21T01:14:02;4.93;;;2.80;;
50337;SDS011;46221;51.178;5.900;2022-08-21T01:16:28;5.38;;;2.90;;
50337;SDS011;46221;51.178;5.900;2022-08-21T01:18:55;4.50;;;3.20;;
50337;SDS011;46221;51.178;5.900;2022-08-21T01:21:22;7.30;;;3.08;;
50337;SDS011;46221;51.178;5.900;2022-08-21T01:23:53;4.78;;;2.95;;
50337;SDS011;46221;51.178;5.900;2022-08-21T01:26:22;3.85;;;2.42;;
50337;SDS011;46221;51.178;5.900;2022-08-21T01:29:02;5.20;;;2.80;;
50337;SDS011;46221;51.178;5.900;2022-08-21T01:31:29;4.40;;;2.47;;
50337;SDS011;46221;51.178;5.900;2022-08-21T01:33:57;4.57;;;2.70;;
50337;SDS011;46221;51.178;5.900;2022-08-21T01:36:23;4.10;;;3.15;;
50337;SDS011;46221;51.178;5.900;2022-08-21T01:38:50;5.45;;;2.75;;
50337;SDS011;46221;51.178;5.900;2022-08-21T01:41:16;3.78;;;2.50;;
50337;SDS011;46221;51.178;5.900;2022-08-21T01:43:43;4.47;;;2.63;;
50337;SDS011;46221;51.178;5.900;2022-08-21T01:46:10;5.20;;;3.13;;
50337;SDS011;46221;51.178;5.900;2022-08-21T01:48:37;3.88;;;2.50;;
50337;SDS011;46221;51.178;5.900;2022-08-21T01:51:04;4.28;;;2.80;;
50337;SDS011;46221;51.178;5.900;2022-08-21T01:53:31;5.97;;;3.10;;
50337;SDS011;46221;51.178;5.900;2022-08-21T01:55:58;4.53;;;2.35;;
50337;SDS011;46221;51.178;5.900;2022-08-21T01:58:25;4.10;;;2.60;;
50337;SDS011;46221;51.178;5.900;2022-08-21T02:00:51;4.28;;;2.80;;
50337;SDS011;46221;51.178;5.900;2022-08-21T02:03:17;4.60;;;2.70;;
50337;SDS011;46221;51.178;5.900;2022-08-21T02:06:02;4.75;;;2.55;;
50337;SDS011;46221;51.178;5.900;2022-08-21T02:08:28;7.35;;;3.22;;
50337;SDS011;46221;51.178;5.900;2022-08-21T02:10:54;5.28;;;3.00;;
50337;SDS011;46221;51.178;5.900;2022-08-21T02:13:21;3.78;;;3.05;;
50337;SDS011;46221;51.178;5.900;2022-08-21T02:15:47;5.15;;;3.03;;
50337;SDS011;46221;51.178;5.900;2022-08-21T02:18:13;4.35;;;2.72;;
50337;SDS011;46221;51.178;5.900;2022-08-21T02:20:41;6.00;;;2.72;;
50337;SDS011;46221;51.178;5.900;2022-08-21T02:23:08;4.38;;;2.58;;
50337;SDS011;46221;51.178;5.900;2022-08-21T02:25:35;5.60;;;2.97;;
50337;SDS011;46221;51.178;5.900;2022-08-21T02:28:03;3.53;;;2.40;;
50337;SDS011;46221;51.178;5.900;2022-08-21T02:30:32;3.92;;;2.60;;
50337;SDS011;46221;51.178;5.900;2022-08-21T02:32:58;4.30;;;2.70;;
50337;SDS011;46221;51.178;5.900;2022-08-21T02:35:25;4.82;;;3.05;;
50337;SDS011;46221;51.178;5.900;2022-08-21T02:37:56;6.30;;;2.90;;
50337;SDS011;46221;51.178;5.900;2022-08-21T02:40:23;4.28;;;2.63;;
50337;SDS011;46221;51.178;5.900;2022-08-21T02:42:50;4.13;;;2.88;;
50337;SDS011;46221;51.178;5.900;2022-08-21T02:45:17;6.18;;;2.78;;
50337;SDS011;46221;51.178;5.900;2022-08-21T02:47:48;4.25;;;2.63;;
50337;SDS011;46221;51.178;5.900;2022-08-21T02:50:17;5.35;;;2.88;;
50337;SDS011;46221;51.178;5.900;2022-08-21T02:52:43;4.38;;;2.78;;
50337;SDS011;46221;51.178;5.900;2022-08-21T02:55:16;4.68;;;2.80;;
50337;SDS011;46221;51.178;5.900;2022-08-21T02:57:43;4.40;;;2.95;;
50337;SDS011;46221;51.178;5.900;2022-08-21T03:00:09;5.18;;;2.63;;
50337;SDS011;46221;51.178;5.900;2022-08-21T03:02:37;4.30;;;2.67;;
50337;SDS011;46221;51.178;5.900;2022-08-21T03:05:05;4.20;;;2.50;;
50337;SDS011;46221;51.178;5.900;2022-08-21T03:07:31;4.70;;;2.80;;
50337;SDS011;46221;51.178;5.900;2022-08-21T03:09:58;4.57;;;2.78;;
50337;SDS011;46221;51.178;5.900;2022-08-21T03:12:24;4.28;;;2.38;;
50337;SDS011;46221;51.178;5.900;2022-08-21T03:14:55;4.75;;;2.50;;
50337;SDS011;46221;51.178;5.900;2022-08-21T03:17:21;6.00;;;2.72;;
50337;SDS011;46221;51.178;5.900;2022-08-21T03:19:55;5.30;;;2.40;;
50337;SDS011;46221;51.178;5.900;2022-08-21T03:22:22;5.55;;;2.47;;
50337;SDS011;46221;51.178;5.900;2022-08-21T03:24:48;5.13;;;2.53;;
50337;SDS011;46221;51.178;5.900;2022-08-21T03:27:16;4.60;;;2.50;;
50337;SDS011;46221;51.178;5.900;2022-08-21T03:29:45;5.47;;;2.50;;
50337;SDS011;46221;51.178;5.900;2022-08-21T03:32:11;3.80;;;2.40;;
50337;SDS011;46221;51.178;5.900;2022-08-21T03:34:38;4.15;;;2.40;;
50337;SDS011;46221;51.178;5.900;2022-08-21T03:37:06;5.82;;;2.78;;
50337;SDS011;46221;51.178;5.900;2022-08-21T03:39:32;5.15;;;2.63;;
50337;SDS011;46221;51.178;5.900;2022-08-21T03:41:59;3.75;;;2.63;;
50337;SDS011;46221;51.178;5.900;2022-08-21T03:44:26;6.03;;;3.08;;
50337;SDS011;46221;51.178;5.900;2022-08-21T03:46:54;8.32;;;2.63;;
50337;SDS011;46221;51.178;5.900;2022-08-21T03:49:21;5.32;;;2.60;;
50337;SDS011;46221;51.178;5.900;2022-08-21T03:51:47;3.80;;;2.17;;
50337;SDS011;46221;51.178;5.900;2022-08-21T03:54:24;5.57;;;2.00;;
50337;SDS011;46221;51.178;5.900;2022-08-21T03:56:53;3.92;;;2.40;;
50337;SDS011;46221;51.178;5.900;2022-08-21T03:59:20;5.15;;;2.47;;
50337;SDS011;46221;51.178;5.900;2022-08-21T04:01:53;6.05;;;2.70;;
50337;SDS011;46221;51.178;5.900;2022-08-21T04:04:20;4.57;;;2.67;;
50337;SDS011;46221;51.178;5.900;2022-08-21T04:06:46;6.22;;;2.25;;
50337;SDS011;46221;51.178;5.900;2022-08-21T04:09:12;3.60;;;1.85;;
50337;SDS011;46221;51.178;5.900;2022-08-21T04:11:38;5.40;;;1.98;;
50337;SDS011;46221;51.178;5.900;2022-08-21T04:14:05;5.63;;;2.30;;
50337;SDS011;46221;51.178;5.900;2022-08-21T04:16:31;3.05;;;1.90;;
50337;SDS011;46221;51.178;5.900;2022-08-21T04:18:57;5.35;;;2.13;;
50337;SDS011;46221;51.178;5.900;2022-08-21T04:21:24;4.50;;;2.03;;
50337;SDS011;46221;51.178;5.900;2022-08-21T04:23:50;4.53;;;2.25;;
50337;SDS011;46221;51.178;5.900;2022-08-21T04:26:16;4.57;;;2.58;;
50337;SDS011;46221;51.178;5.900;2022-08-21T04:28:43;4.55;;;2.33;;
50337;SDS011;46221;51.178;5.900;2022-08-21T04:31:09;5.05;;;2.55;;
50337;SDS011;46221;51.178;5.900;2022-08-21T04:33:36;3.58;;;2.30;;
50337;SDS011;46221;51.178;5.900;2022-08-21T04:36:02;4.38;;;2.00;;
50337;SDS011;46221;51.178;5.900;2022-08-21T04:38:29;5.18;;;1.92;;
50337;SDS011;46221;51.178;5.900;2022-08-21T04:41:02;4.95;;;2.13;;
50337;SDS011;46221;51.178;5.900;2022-08-21T04:43:29;3.78;;;2.10;;
50337;SDS011;46221;51.178;5.900;2022-08-21T04:45:55;4.45;;;2.13;;
50337;SDS011;46221;51.178;5.900;2022-08-21T04:48:22;5.55;;;2.25;;
50337;SDS011;46221;51.178;5.900;2022-08-21T04:50:52;5.93;;;2.33;;
50337;SDS011;46221;51.178;5.900;2022-08-21T04:53:27;4.00;;;1.90;;
50337;SDS011;46221;51.178;5.900;2022-08-21T04:55:54;6.53;;;2.30;;
50337;SDS011;46221;51.178;5.900;2022-08-21T04:58:22;4.45;;;2.10;;
50337;SDS011;46221;51.178;5.900;2022-08-21T05:00:51;2.88;;;1.77;;
50337;SDS011;46221;51.178;5.900;2022-08-21T05:03:18;5.25;;;2.10;;
50337;SDS011;46221;51.178;5.900;2022-08-21T05:05:44;4.72;;;2.00;;
50337;SDS011;46221;51.178;5.900;2022-08-21T05:08:12;6.55;;;2.15;;
50337;SDS011;46221;51.178;5.900;2022-08-21T05:10:40;3.75;;;1.85;;
50337;SDS011;46221;51.178;5.900;2022-08-21T05:13:09;4.55;;;2.00;;
50337;SDS011;46221;51.178;5.900;2022-08-21T05:15:35;4.40;;;2.20;;
50337;SDS011;46221;51.178;5.900;2022-08-21T05:18:03;4.63;;;1.95;;
50337;SDS011;46221;51.178;5.900;2022-08-21T05:20:29;3.28;;;2.20;;
50337;SDS011;46221;51.178;5.900;2022-08-21T05:22:56;3.65;;;2.30;;
50337;SDS011;46221;51.178;5.900;2022-08-21T05:25:23;5.53;;;2.05;;
50337;SDS011;46221;51.178;5.900;2022-08-21T05:27:49;4.72;;;1.95;;
50337;SDS011;46221;51.178;5.900;2022-08-21T05:30:17;4.05;;;1.90;;
50337;SDS011;46221;51.178;5.900;2022-08-21T05:32:44;4.65;;;2.08;;
50337;SDS011;46221;51.178;5.900;2022-08-21T05:35:10;6.90;;;2.80;;
50337;SDS011;46221;51.178;5.900;2022-08-21T05:37:37;4.88;;;2.10;;
50337;SDS011;46221;51.178;5.900;2022-08-21T05:40:03;4.55;;;1.92;;
50337;SDS011;46221;51.178;5.900;2022-08-21T05:42:49;5.82;;;2.10;;
50337;SDS011;46221;51.178;5.900;2022-08-21T05:45:21;4.43;;;2.10;;
50337;SDS011;46221;51.178;5.900;2022-08-21T05:48:08;6.20;;;2.05;;
50337;SDS011;46221;51.178;5.900;2022-08-21T05:50:35;5.82;;;2.78;;
50337;SDS011;46221;51.178;5.900;2022-08-21T05:53:05;6.43;;;2.22;;
50337;SDS011;46221;51.178;5.900;2022-08-21T05:55:35;5.50;;;2.00;;
50337;SDS011;46221;51.178;5.900;2022-08-21T05:58:07;7.80;;;2.47;;
50337;SDS011;46221;51.178;5.900;2022-08-21T06:00:34;6.78;;;2.20;;
50337;SDS011;46221;51.178;5.900;2022-08-21T06:03:00;5.93;;;2.00;;
50337;SDS011;46221;51.178;5.900;2022-08-21T06:05:26;5.38;;;2.10;;
50337;SDS011;46221;51.178;5.900;2022-08-21T06:08:02;5.20;;;2.00;;
50337;SDS011;46221;51.178;5.900;2022-08-21T06:10:29;6.97;;;2.20;;
50337;SDS011;46221;51.178;5.900;2022-08-21T06:12:55;7.57;;;2.40;;
50337;SDS011;46221;51.178;5.900;2022-08-21T06:15:21;4.85;;;2.03;;
50337;SDS011;46221;51.178;5.900;2022-08-21T06:17:48;5.72;;;1.90;;
50337;SDS011;46221;51.178;5.900;2022-08-21T06:20:14;6.30;;;2.60;;
50337;SDS011;46221;51.178;5.900;2022-08-21T06:22:41;8.18;;;2.25;;
50337;SDS011;46221;51.178;5.900;2022-08-21T06:25:07;8.40;;;2.67;;
50337;SDS011;46221;51.178;5.900;2022-08-21T06:27:35;5.88;;;2.17;;
50337;SDS011;46221;51.178;5.900;2022-08-21T06:30:02;6.38;;;2.40;;
50337;SDS011;46221;51.178;5.900;2022-08-21T06:32:29;6.15;;;2.40;;
50337;SDS011;46221;51.178;5.900;2022-08-21T06:34:55;7.20;;;2.08;;
50337;SDS011;46221;51.178;5.900;2022-08-21T06:37:21;4.75;;;1.77;;
50337;SDS011;46221;51.178;5.900;2022-08-21T06:39:48;5.75;;;1.75;;
50337;SDS011;46221;51.178;5.900;2022-08-21T06:42:15;6.72;;;2.67;;
50337;SDS011;46221;51.178;5.900;2022-08-21T06:44:41;9.07;;;2.13;;
50337;SDS011;46221;51.178;5.900;2022-08-21T06:47:08;5.90;;;2.30;;
50337;SDS011;46221;51.178;5.900;2022-08-21T06:49:36;5.75;;;2.83;;
50337;SDS011;46221;51.178;5.900;2022-08-21T06:52:03;6.75;;;2.22;;
50337;SDS011;46221;51.178;5.900;2022-08-21T06:54:34;5.07;;;2.05;;
50337;SDS011;46221;51.178;5.900;2022-08-21T06:57:00;5.82;;;2.05;;
50337;SDS011;46221;51.178;5.900;2022-08-21T06:59:26;6.82;;;2.05;;
50337;SDS011;46221;51.178;5.900;2022-08-21T07:01:53;5.70;;;2.45;;
50337;SDS011;46221;51.178;5.900;2022-08-21T07:04:19;4.85;;;1.90;;
50337;SDS011;46221;51.178;5.900;2022-08-21T07:06:46;6.13;;;2.20;;
50337;SDS011;46221;51.178;5.900;2022-08-21T07:09:12;5.85;;;2.00;;
50337;SDS011;46221;51.178;5.900;2022-08-21T07:11:39;5.53;;;2.20;;
50337;SDS011;46221;51.178;5.900;2022-08-21T07:14:12;5.05;;;1.70;;
50337;SDS011;46221;51.178;5.900;2022-08-21T07:16:45;6.88;;;1.75;;
50337;SDS011;46221;51.178;5.900;2022-08-21T07:19:12;5.68;;;2.15;;
50337;SDS011;46221;51.178;5.900;2022-08-21T07:21:38;4.78;;;1.88;;
50337;SDS011;46221;51.178;5.900;2022-08-21T07:24:05;6.43;;;1.88;;
50337;SDS011;46221;51.178;5.900;2022-08-21T07:26:31;4.53;;;1.70;;
50337;SDS011;46221;51.178;5.900;2022-08-21T07:28:58;5.95;;;1.92;;
50337;SDS011;46221;51.178;5.900;2022-08-21T07:31:25;4.68;;;1.88;;
50337;SDS011;46221;51.178;5.900;2022-08-21T07:33:52;5.93;;;1.77;;
50337;SDS011;46221;51.178;5.900;2022-08-21T07:36:19;4.05;;;1.75;;
50337;SDS011;46221;51.178;5.900;2022-08-21T07:38:46;5.50;;;1.65;;
50337;SDS011;46221;51.178;5.900;2022-08-21T07:41:14;4.80;;;1.80;;
50337;SDS011;46221;51.178;5.900;2022-08-21T07:43:41;3.90;;;1.80;;
50337;SDS011;46221;51.178;5.900;2022-08-21T07:46:11;5.63;;;2.30;;
50337;SDS011;46221;51.178;5.900;2022-08-21T07:48:38;3.13;;;1.52;;
50337;SDS011;46221;51.178;5.900;2022-08-21T07:51:06;4.07;;;1.70;;
50337;SDS011;46221;51.178;5.900;2022-08-21T07:53:34;4.80;;;1.50;;
50337;SDS011;46221;51.178;5.900;2022-08-21T07:56:00;4.97;;;1.60;;
50337;SDS011;46221;51.178;5.900;2022-08-21T07:58:27;6.18;;;1.95;;
50337;SDS011;46221;51.178;5.900;2022-08-21T08:00:53;5.38;;;1.67;;
50337;SDS011;46221;51.178;5.900;2022-08-21T08:03:19;7.97;;;1.60;;
50337;SDS011;46221;51.178;5.900;2022-08-21T08:05:54;6.70;;;1.80;;
50337;SDS011;46221;51.178;5.900;2022-08-21T08:08:20;6.15;;;1.50;;
50337;SDS011;46221;51.178;5.900;2022-08-21T08:10:47;4.53;;;1.48;;
50337;SDS011;46221;51.178;5.900;2022-08-21T08:13:16;3.55;;;1.20;;
50337;SDS011;46221;51.178;5.900;2022-08-21T08:15:42;5.60;;;1.45;;
50337;SDS011;46221;51.178;5.900;2022-08-21T08:18:09;4.95;;;1.77;;
50337;SDS011;46221;51.178;5.900;2022-08-21T08:20:35;4.05;;;1.55;;
50337;SDS011;46221;51.178;5.900;2022-08-21T08:23:02;5.85;;;1.40;;
50337;SDS011;46221;51.178;5.900;2022-08-21T08:25:29;4.30;;;1.40;;
50337;SDS011;46221;51.178;5.900;2022-08-21T08:28:02;4.80;;;1.80;;
50337;SDS011;46221;51.178;5.900;2022-08-21T08:30:41;5.40;;;1.45;;
50337;SDS011;46221;51.178;5.900;2022-08-21T08:33:08;6.32;;;1.50;;
50337;SDS011;46221;51.178;5.900;2022-08-21T08:35:35;5.13;;;1.40;;
50337;SDS011;46221;51.178;5.900;2022-08-21T08:38:04;5.25;;;1.40;;
50337;SDS011;46221;51.178;5.900;2022-08-21T08:40:38;7.28;;;1.52;;
50337;SDS011;46221;51.178;5.900;2022-08-21T08:43:08;9.25;;;1.80;;
50337;SDS011;46221;51.178;5.900;2022-08-21T08:45:40;5.45;;;1.38;;
50337;SDS011;46221;51.178;5.900;2022-08-21T08:48:09;5.35;;;1.27;;
50337;SDS011;46221;51.178;5.900;2022-08-21T08:50:49;5.53;;;1.40;;
50337;SDS011;46221;51.178;5.900;2022-08-21T08:53:23;4.03;;;1.20;;
50337;SDS011;46221;51.178;5.900;2022-08-21T08:55:54;5.95;;;1.45;;
50337;SDS011;46221;51.178;5.900;2022-08-21T08:58:23;4.05;;;1.25;;
50337;SDS011;46221;51.178;5.900;2022-08-21T09:00:50;4.85;;;1.65;;
50337;SDS011;46221;51.178;5.900;2022-08-21T09:03:17;4.93;;;1.48;;
50337;SDS011;46221;51.178;5.900;2022-08-21T09:05:45;5.20;;;1.38;;
50337;SDS011;46221;51.178;5.900;2022-08-21T09:10:52;4.57;;;1.73;;
50337;SDS011;46221;51.178;5.900;2022-08-21T09:26:26;6.32;;;1.60;;
50337;SDS011;46221;51.178;5.900;2022-08-21T09:28:58;5.22;;;1.30;;
50337;SDS011;46221;51.178;5.900;2022-08-21T09:31:26;6.32;;;1.40;;
50337;SDS011;46221;51.178;5.900;2022-08-21T09:34:10;6.70;;;1.98;;
50337;SDS011;46221;51.178;5.900;2022-08-21T09:36:38;3.55;;;1.25;;
50337;SDS011;46221;51.178;5.900;2022-08-21T09:39:06;3.97;;;1.42;;
50337;SDS011;46221;51.178;5.900;2022-08-21T09:41:34;5.95;;;1.50;;
50337;SDS011;46221;51.178;5.900;2022-08-21T09:44:02;5.10;;;1.52;;
50337;SDS011;46221;51.178;5.900;2022-08-21T09:46:29;6.15;;;1.55;;
50337;SDS011;46221;51.178;5.900;2022-08-21T09:48:57;5.82;;;1.50;;
50337;SDS011;46221;51.178;5.900;2022-08-21T09:51:34;4.03;;;1.33;;
50337;SDS011;46221;51.178;5.900;2022-08-21T09:54:12;5.20;;;1.55;;
50337;SDS011;46221;51.178;5.900;2022-08-21T09:57:05;5.25;;;1.38;;
50337;SDS011;46221;51.178;5.900;2022-08-21T09:59:45;3.03;;;1.00;;
50337;SDS011;46221;51.178;5.900;2022-08-21T10:02:21;5.63;;;1.33;;
50337;SDS011;46221;51.178;5.900;2022-08-21T10:04:52;4.30;;;1.52;;
50337;SDS011;46221;51.178;5.900;2022-08-21T10:07:20;4.25;;;1.15;;
50337;SDS011;46221;51.178;5.900;2022-08-21T10:09:57;4.63;;;1.17;;
50337;SDS011;46221;51.178;5.900;2022-08-21T10:12:25;3.53;;;1.45;;
50337;SDS011;46221;51.178;5.900;2022-08-21T10:17:27;6.30;;;1.30;;
50337;SDS011;46221;51.178;5.900;2022-08-21T10:22:48;3.55;;;1.30;;
50337;SDS011;46221;51.178;5.900;2022-08-21T10:25:19;4.78;;;1.30;;
50337;SDS011;46221;51.178;5.900;2022-08-21T10:27:51;4.70;;;1.30;;
50337;SDS011;46221;51.178;5.900;2022-08-21T10:30:20;3.38;;;1.10;;
50337;SDS011;46221;51.178;5.900;2022-08-21T10:32:51;3.53;;;1.20;;
50337;SDS011;46221;51.178;5.900;2022-08-21T10:35:31;3.97;;;1.15;;
50337;SDS011;46221;51.178;5.900;2022-08-21T10:43:24;3.67;;;1.40;;
50337;SDS011;46221;51.178;5.900;2022-08-21T10:48:53;3.22;;;1.05;;
50337;SDS011;46221;51.178;5.900;2022-08-21T10:51:47;3.85;;;1.20;;
50337;SDS011;46221;51.178;5.900;2022-08-21T10:54:19;4.80;;;1.10;;
50337;SDS011;46221;51.178;5.900;2022-08-21T10:56:49;6.63;;;1.50;;
50337;SDS011;46221;51.178;5.900;2022-08-21T11:01:47;3.15;;;1.20;;
50337;SDS011;46221;51.178;5.900;2022-08-21T11:04:24;4.40;;;1.15;;
50337;SDS011;46221;51.178;5.900;2022-08-21T11:07:00;2.78;;;1.00;;
50337;SDS011;46221;51.178;5.900;2022-08-21T11:09:40;3.53;;;1.13;;
50337;SDS011;46221;51.178;5.900;2022-08-21T11:12:31;3.92;;;1.20;;
50337;SDS011;46221;51.178;5.900;2022-08-21T11:15:03;5.35;;;1.17;;
50337;SDS011;46221;51.178;5.900;2022-08-21T11:17:32;3.97;;;1.05;;
50337;SDS011;46221;51.178;5.900;2022-08-21T11:20:23;2.95;;;1.10;;
50337;SDS011;46221;51.178;5.900;2022-08-21T11:22:50;2.40;;;0.90;;
50337;SDS011;46221;51.178;5.900;2022-08-21T11:26:12;4.05;;;0.90;;
50337;SDS011;46221;51.178;5.900;2022-08-21T11:38:34;3.70;;;1.20;;
50337;SDS011;46221;51.178;5.900;2022-08-21T11:46:14;4.60;;;1.30;;
50337;SDS011;46221;51.178;5.900;2022-08-21T11:56:35;3.40;;;1.10;;
50337;SDS011;46221;51.178;5.900;2022-08-21T11:59:06;2.92;;;1.25;;
50337;SDS011;46221;51.178;5.900;2022-08-21T12:01:36;2.92;;;1.00;;
50337;SDS011;46221;51.178;5.900;2022-08-21T12:04:08;3.45;;;1.00;;
50337;SDS011;46221;51.178;5.900;2022-08-21T12:06:37;2.72;;;0.80;;
50337;SDS011;46221;51.178;5.900;2022-08-21T12:09:05;3.90;;;1.20;;
50337;SDS011;46221;51.178;5.900;2022-08-21T12:11:31;4.40;;;1.13;;
50337;SDS011;46221;51.178;5.900;2022-08-21T12:14:12;3.42;;;1.10;;
50337;SDS011;46221;51.178;5.900;2022-08-21T12:16:40;3.85;;;1.17;;
50337;SDS011;46221;51.178;5.900;2022-08-21T12:19:11;2.42;;;0.90;;
50337;SDS011;46221;51.178;5.900;2022-08-21T12:21:54;4.32;;;1.20;;
50337;SDS011;46221;51.178;5.900;2022-08-21T12:26:57;3.15;;;0.88;;
50337;SDS011;46221;51.178;5.900;2022-08-21T12:29:30;2.65;;;0.90;;
50337;SDS011;46221;51.178;5.900;2022-08-21T12:34:37;4.53;;;1.00;;
50337;SDS011;46221;51.178;5.900;2022-08-21T12:39:51;4.00;;;1.10;;
50337;SDS011;46221;51.178;5.900;2022-08-21T12:42:20;3.17;;;0.90;;
50337;SDS011;46221;51.178;5.900;2022-08-21T12:44:51;3.65;;;1.20;;
50337;SDS011;46221;51.178;5.900;2022-08-21T12:49:51;2.70;;;0.95;;
50337;SDS011;46221;51.178;5.900;2022-08-21T12:52:23;2.22;;;0.75;;
50337;SDS011;46221;51.178;5.900;2022-08-21T12:54:50;3.05;;;0.80;;
50337;SDS011;46221;51.178;5.900;2022-08-21T12:57:18;2.42;;;0.80;;
50337;SDS011;46221;51.178;5.900;2022-08-21T12:59:45;2.42;;;0.90;;
50337;SDS011;46221;51.178;5.900;2022-08-21T13:02:18;4.43;;;1.10;;
50337;SDS011;46221;51.178;5.900;2022-08-21T13:04:46;12.88;;;2.05;;
50337;SDS011;46221;51.178;5.900;2022-08-21T13:07:15;13.75;;;2.80;;
50337;SDS011;46221;51.178;5.900;2022-08-21T13:09:54;11.05;;;1.67;;
50337;SDS011;46221;51.178;5.900;2022-08-21T13:12:21;10.68;;;1.75;;
50337;SDS011;46221;51.178;5.900;2022-08-21T13:14:55;12.57;;;3.05;;
50337;SDS011;46221;51.178;5.900;2022-08-21T13:17:22;16.45;;;2.17;;
50337;SDS011;46221;51.178;5.900;2022-08-21T13:19:58;11.10;;;2.08;;
50337;SDS011;46221;51.178;5.900;2022-08-21T13:22:26;11.07;;;1.97;;
50337;SDS011;46221;51.178;5.900;2022-08-21T13:24:59;19.63;;;2.83;;
50337;SDS011;46221;51.178;5.900;2022-08-21T13:27:32;13.90;;;2.63;;
50337;SDS011;46221;51.178;5.900;2022-08-21T13:30:07;12.68;;;1.73;;
50337;SDS011;46221;51.178;5.900;2022-08-21T13:32:34;14.05;;;2.45;;
50337;SDS011;46221;51.178;5.900;2022-08-21T13:35:09;12.90;;;2.15;;
50337;SDS011;46221;51.178;5.900;2022-08-21T13:37:37;10.40;;;1.95;;
50337;SDS011;46221;51.178;5.900;2022-08-21T13:40:06;11.98;;;2.63;;
50337;SDS011;46221;51.178;5.900;2022-08-21T13:42:32;9.38;;;1.88;;
50337;SDS011;46221;51.178;5.900;2022-08-21T13:44:59;8.35;;;1.77;;
50337;SDS011;46221;51.178;5.900;2022-08-21T13:47:26;9.85;;;2.15;;
50337;SDS011;46221;51.178;5.900;2022-08-21T13:49:52;9.70;;;2.10;;
50337;SDS011;46221;51.178;5.900;2022-08-21T13:52:25;12.32;;;2.65;;
50337;SDS011;46221;51.178;5.900;2022-08-21T13:55:09;12.57;;;2.33;;
50337;SDS011;46221;51.178;5.900;2022-08-21T13:57:37;9.63;;;2.13;;
50337;SDS011;46221;51.178;5.900;2022-08-21T14:02:40;9.35;;;2.00;;
50337;SDS011;46221;51.178;5.900;2022-08-21T14:05:08;18.67;;;2.38;;
50337;SDS011;46221;51.178;5.900;2022-08-21T14:07:40;14.65;;;2.55;;
50337;SDS011;46221;51.178;5.900;2022-08-21T14:10:15;10.98;;;2.50;;
50337;SDS011;46221;51.178;5.900;2022-08-21T14:12:50;13.52;;;2.50;;
50337;SDS011;46221;51.178;5.900;2022-08-21T14:15:18;12.37;;;2.33;;
50337;SDS011;46221;51.178;5.900;2022-08-21T14:17:45;7.95;;;2.10;;
50337;SDS011;46221;51.178;5.900;2022-08-21T14:20:24;9.73;;;1.80;;
50337;SDS011;46221;51.178;5.900;2022-08-21T14:22:51;11.25;;;1.83;;
50337;SDS011;46221;51.178;5.900;2022-08-21T14:27:54;10.35;;;2.13;;
50337;SDS011;46221;51.178;5.900;2022-08-21T14:30:29;9.38;;;2.53;;
50337;SDS011;46221;51.178;5.900;2022-08-21T14:32:56;17.27;;;3.08;;
50337;SDS011;46221;51.178;5.900;2022-08-21T14:35:23;10.13;;;2.22;;
50337;SDS011;46221;51.178;5.900;2022-08-21T14:37:49;10.45;;;2.10;;
50337;SDS011;46221;51.178;5.900;2022-08-21T14:40:20;8.68;;;1.73;;
50337;SDS011;46221;51.178;5.900;2022-08-21T14:42:47;6.32;;;1.60;;
50337;SDS011;46221;51.178;5.900;2022-08-21T14:47:54;6.47;;;1.48;;
50337;SDS011;46221;51.178;5.900;2022-08-21T14:50:20;6.07;;;1.63;;
50337;SDS011;46221;51.178;5.900;2022-08-21T14:52:46;6.55;;;1.30;;
50337;SDS011;46221;51.178;5.900;2022-08-21T14:55:15;6.63;;;1.50;;
50337;SDS011;46221;51.178;5.900;2022-08-21T14:57:44;5.03;;;1.42;;
50337;SDS011;46221;51.178;5.900;2022-08-21T15:00:12;7.90;;;2.05;;
50337;SDS011;46221;51.178;5.900;2022-08-21T15:02:38;6.68;;;1.40;;
50337;SDS011;46221;51.178;5.900;2022-08-21T15:05:05;4.35;;;1.65;;
50337;SDS011;46221;51.178;5.900;2022-08-21T15:07:32;5.57;;;1.38;;
50337;SDS011;46221;51.178;5.900;2022-08-21T15:09:58;7.00;;;1.58;;
50337;SDS011;46221;51.178;5.900;2022-08-21T15:12:24;7.13;;;1.70;;
50337;SDS011;46221;51.178;5.900;2022-08-21T15:14:51;3.78;;;1.00;;
50337;SDS011;46221;51.178;5.900;2022-08-21T15:17:18;8.00;;;1.30;;
50337;SDS011;46221;51.178;5.900;2022-08-21T15:19:45;7.63;;;1.75;;
50337;SDS011;46221;51.178;5.900;2022-08-21T15:22:11;5.32;;;1.35;;
50337;SDS011;46221;51.178;5.900;2022-08-21T15:24:40;7.35;;;1.35;;
50337;SDS011;46221;51.178;5.900;2022-08-21T15:27:07;8.38;;;1.70;;
50337;SDS011;46221;51.178;5.900;2022-08-21T15:29:34;9.60;;;1.58;;
50337;SDS011;46221;51.178;5.900;2022-08-21T15:32:02;8.50;;;1.77;;
50337;SDS011;46221;51.178;5.900;2022-08-21T15:34:29;7.32;;;1.73;;
50337;SDS011;46221;51.178;5.900;2022-08-21T15:36:57;8.32;;;1.50;;
50337;SDS011;46221;51.178;5.900;2022-08-21T15:39:24;6.00;;;1.77;;
50337;SDS011;46221;51.178;5.900;2022-08-21T15:42:02;8.55;;;1.48;;
50337;SDS011;46221;51.178;5.900;2022-08-21T15:44:35;5.60;;;1.30;;
50337;SDS011;46221;51.178;5.900;2022-08-21T15:47:02;5.80;;;1.55;;
50337;SDS011;46221;51.178;5.900;2022-08-21T15:49:28;7.25;;;1.55;;
50337;SDS011;46221;51.178;5.900;2022-08-21T15:51:55;7.88;;;1.90;;
50337;SDS011;46221;51.178;5.900;2022-08-21T15:54:21;5.95;;;1.35;;
50337;SDS011;46221;51.178;5.900;2022-08-21T15:56:47;6.10;;;1.50;;
50337;SDS011;46221;51.178;5.900;2022-08-21T15:59:18;5.45;;;1.50;;
50337;SDS011;46221;51.178;5.900;2022-08-21T16:01:45;6.93;;;1.50;;
50337;SDS011;46221;51.178;5.900;2022-08-21T16:04:18;4.55;;;1.60;;
50337;SDS011;46221;51.178;5.900;2022-08-21T16:06:45;6.53;;;1.67;;
50337;SDS011;46221;51.178;5.900;2022-08-21T16:09:22;5.55;;;1.10;;